Time;durP1;ratioP1;P1;durP2;ratioP2;P2;SDS_P1;SDS_P2;PMS_P1;PMS_P2;Temp;Humidity;BMP_temperature;BMP_pressure;BME280_temperature;BME280_humidity;BME280_pressure;Samples;Min_cycle;Max_cycle;Signal;HPM_P1;HPM_P2
2021/03/25 00:01:38;;;;;;;6.22;4.70;;;17.80;49.40;;;;;;4950331;29;20611;-79
2021/03/25 00:04:13;;;;;;;5.75;4.78;;;17.80;49.40;;;;;;4950435;29;20185;-79
2021/03/25 00:06:44;;;;;;;5.63;4.57;;;17.80;49.40;;;;;;4950054;29;20539;-79
2021/03/25 00:09:49;;;;;;;6.22;4.80;;;17.80;49.40;;;;;;4950138;29;20217;-79
2021/03/25 00:12:35;;;;;;;6.05;5.03;;;17.80;49.30;;;;;;4953143;29;20165;-79
2021/03/25 00:15:04;;;;;;;5.68;4.88;;;17.80;49.40;;;;;;4950308;29;20170;-79
2021/03/25 00:17:52;;;;;;;6.45;5.10;;;17.80;49.40;;;;;;4950646;29;20189;-79
2021/03/25 00:20:39;;;;;;;5.78;4.68;;;17.80;49.40;;;;;;4950028;29;20211;-80
2021/03/25 00:23:06;;;;;;;6.28;4.75;;;17.80;49.50;;;;;;4965669;29;20216;-79
2021/03/25 00:25:33;;;;;;;5.82;4.70;;;17.80;49.50;;;;;;4949961;29;20167;-79
2021/03/25 00:28:00;;;;;;;6.57;4.75;;;17.80;49.50;;;;;;4966053;29;20166;-79
2021/03/25 00:30:30;;;;;;;6.82;4.40;;;17.80;49.60;;;;;;4950126;29;20217;-79
2021/03/25 00:32:56;;;;;;;5.63;4.72;;;17.70;49.50;;;;;;4950322;29;20225;-79
2021/03/25 00:35:22;;;;;;;6.32;5.00;;;17.70;49.50;;;;;;4965499;28;20195;-80
2021/03/25 00:37:48;;;;;;;7.57;4.75;;;17.70;49.60;;;;;;4992496;28;20163;-79
2021/03/25 00:40:14;;;;;;;7.50;5.15;;;17.70;49.60;;;;;;5011468;28;20194;-80
2021/03/25 00:42:41;;;;;;;6.72;4.75;;;17.70;49.60;;;;;;5013287;28;20171;-79
2021/03/25 00:45:11;;;;;;;7.18;4.90;;;17.70;49.50;;;;;;5013157;28;20637;-79
2021/03/25 00:47:42;;;;;;;6.68;4.88;;;17.70;49.60;;;;;;5030544;28;20191;-79
2021/03/25 00:50:17;;;;;;;5.57;4.55;;;17.70;49.60;;;;;;5013228;28;20163;-79
2021/03/25 00:52:44;;;;;;;5.85;4.75;;;17.70;49.60;;;;;;5013420;28;20155;-79
2021/03/25 00:55:12;;;;;;;5.93;4.68;;;17.70;49.60;;;;;;5013363;28;20639;-80
2021/03/25 00:57:38;;;;;;;5.00;4.15;;;17.70;49.60;;;;;;5030236;28;20162;-80
2021/03/25 01:00:08;;;;;;;5.50;4.63;;;17.70;49.50;;;;;;4980293;28;20254;-79
2021/03/25 01:02:40;;;;;;;5.20;4.30;;;17.70;49.60;;;;;;4996707;28;20590;-79
2021/03/25 01:05:10;;;;;;;7.57;5.10;;;17.70;49.70;;;;;;5013496;28;20156;-79
2021/03/25 01:07:35;;;;;;;5.78;4.82;;;17.70;49.60;;;;;;4996185;28;20167;-79
2021/03/25 01:10:06;;;;;;;5.38;4.43;;;17.70;49.60;;;;;;4980432;28;20159;-79
2021/03/25 01:12:34;;;;;;;5.60;4.70;;;17.70;49.60;;;;;;5013081;28;20164;-80
2021/03/25 01:15:06;;;;;;;6.05;5.00;;;17.70;49.60;;;;;;5012201;28;20187;-79
2021/03/25 01:17:34;;;;;;;5.97;4.93;;;17.70;49.70;;;;;;4996416;28;20163;-79
2021/03/25 01:20:09;;;;;;;6.00;4.88;;;17.70;49.70;;;;;;4996529;28;20159;-79
2021/03/25 01:22:34;;;;;;;5.45;4.65;;;17.70;49.60;;;;;;4996020;28;20649;-79
2021/03/25 01:25:01;;;;;;;6.70;4.78;;;17.70;49.80;;;;;;4996061;28;20187;-79
2021/03/25 01:27:29;;;;;;;6.40;4.75;;;17.70;49.70;;;;;;5011961;28;20178;-79
2021/03/25 01:29:58;;;;;;;7.60;5.00;;;17.60;49.70;;;;;;4996035;28;20259;-79
2021/03/25 01:32:24;;;;;;;6.70;5.05;;;17.70;49.70;;;;;;4995820;28;20160;-79
2021/03/25 01:34:51;;;;;;;7.38;5.07;;;17.60;49.70;;;;;;4996382;28;20191;-79
2021/03/25 01:37:17;;;;;;;7.85;4.82;;;17.60;49.70;;;;;;4996004;28;20176;-80
2021/03/25 01:39:49;;;;;;;6.10;4.93;;;17.70;49.70;;;;;;4996445;28;20160;-79
2021/03/25 01:42:37;;;;;;;7.32;4.47;;;17.70;49.70;;;;;;4996101;28;20213;-80
2021/03/25 01:45:29;;;;;;;5.88;4.65;;;17.70;49.70;;;;;;5008407;28;20175;-80
2021/03/25 01:47:59;;;;;;;5.68;4.68;;;17.70;49.70;;;;;;5029649;28;20270;-79
2021/03/25 01:50:25;;;;;;;5.85;4.82;;;17.70;49.70;;;;;;5012550;28;20152;-79
2021/03/25 01:53:16;;;;;;;6.63;4.85;;;17.70;49.60;;;;;;5011477;28;20158;-79
2021/03/25 01:55:46;;;;;;;5.90;4.80;;;17.70;49.60;;;;;;5028778;28;20159;-79
2021/03/25 01:58:46;;;;;;;5.68;4.72;;;17.60;49.70;;;;;;5029198;28;20222;-79
2021/03/25 02:01:42;;;;;;;5.65;4.60;;;17.60;49.70;;;;;;5011191;28;20222;-80
2021/03/25 02:04:17;;;;;;;6.65;4.80;;;17.60;49.70;;;;;;5008716;28;20202;-80
2021/03/25 02:06:55;;;;;;;6.35;5.18;;;17.60;49.70;;;;;;4995508;28;20189;-79
2021/03/25 02:09:42;;;;;;;5.28;4.40;;;17.60;49.80;;;;;;5012158;28;20519;-79
2021/03/25 02:12:40;;;;;;;6.72;4.55;;;17.60;49.80;;;;;;5028821;28;20171;-79
2021/03/25 02:15:32;;;;;;;5.95;4.45;;;17.60;49.80;;;;;;5011963;28;20202;-79
2021/03/25 02:18:21;;;;;;;7.15;4.50;;;17.60;49.90;;;;;;5008543;28;20290;-79
2021/03/25 02:21:12;;;;;;;6.40;5.00;;;17.60;49.80;;;;;;5012713;28;20202;-79
2021/03/25 02:24:02;;;;;;;6.68;4.60;;;17.60;49.90;;;;;;5028219;28;20230;-79
2021/03/25 02:26:31;;;;;;;7.00;4.90;;;17.60;49.90;;;;;;5010934;28;20178;-79
2021/03/25 02:29:27;;;;;;;5.22;4.55;;;17.60;49.80;;;;;;5011347;28;20223;-80
2021/03/25 02:32:08;;;;;;;5.57;4.55;;;17.60;49.80;;;;;;5011048;28;20163;-79
2021/03/25 02:34:36;;;;;;;7.22;4.85;;;17.60;49.80;;;;;;5010402;28;20258;-79
2021/03/25 02:37:38;;;;;;;9.38;5.07;;;17.60;49.80;;;;;;4994698;28;20151;-79
2021/03/25 02:40:13;;;;;;;6.57;4.90;;;17.60;49.80;;;;;;4951955;29;20216;-79
2021/03/25 02:43:12;;;;;;;9.00;5.13;;;17.60;49.80;;;;;;4968763;29;20212;-79
2021/03/25 02:46:37;;;;;;;6.25;4.65;;;17.60;49.80;;;;;;4967661;29;20237;-79
2021/03/25 02:49:24;;;;;;;6.00;4.55;;;17.60;49.80;;;;;;4951355;29;20272;-79
2021/03/25 02:52:15;;;;;;;6.93;4.75;;;17.60;49.80;;;;;;4954449;29;20233;-79
2021/03/25 02:55:02;;;;;;;6.35;4.45;;;17.60;49.80;;;;;;4951461;29;20181;-79
2021/03/25 02:57:34;;;;;;;5.90;4.43;;;17.50;49.80;;;;;;4951235;29;20169;-79
2021/03/25 03:00:29;;;;;;;6.53;4.88;;;17.50;49.80;;;;;;4935196;29;20172;-79
2021/03/25 03:03:00;;;;;;;5.32;4.53;;;17.60;49.80;;;;;;4965862;28;20158;-79
2021/03/25 03:05:26;;;;;;;5.53;4.53;;;17.60;49.80;;;;;;4936745;29;20240;-80
2021/03/25 03:08:14;;;;;;;6.28;4.90;;;17.50;49.80;;;;;;4935988;29;20205;-79
2021/03/25 03:10:56;;;;;;;6.00;4.32;;;17.50;49.80;;;;;;4950936;29;20177;-79
2021/03/25 03:13:24;;;;;;;5.22;4.32;;;17.50;49.80;;;;;;4949533;28;20183;-80
2021/03/25 03:16:29;;;;;;;5.88;4.72;;;17.50;49.80;;;;;;5010831;28;20163;-79
2021/03/25 03:19:24;;;;;;;6.47;4.90;;;17.50;49.70;;;;;;5012874;28;20164;-79
2021/03/25 03:21:56;;;;;;;5.78;4.57;;;17.50;49.80;;;;;;4994873;28;20207;-79
2021/03/25 03:24:46;;;;;;;6.40;4.45;;;17.50;49.90;;;;;;4994203;28;20274;-79
2021/03/25 03:27:13;;;;;;;5.50;4.30;;;17.50;49.80;;;;;;5010775;28;20194;-79
2021/03/25 03:30:01;;;;;;;6.80;4.55;;;17.50;49.80;;;;;;4993156;28;20186;-80
2021/03/25 03:32:51;;;;;;;7.38;5.18;;;17.50;49.80;;;;;;5010137;28;20258;-79
2021/03/25 03:35:31;;;;;;;5.07;4.22;;;17.50;49.80;;;;;;4993979;28;20171;-79
2021/03/25 03:38:26;;;;;;;6.03;4.45;;;17.50;49.80;;;;;;4977749;28;20178;-79
2021/03/25 03:41:03;;;;;;;7.68;4.75;;;17.50;49.80;;;;;;5011099;28;20191;-79
2021/03/25 03:43:33;;;;;;;6.28;4.25;;;17.50;49.80;;;;;;4993598;28;20171;-79
2021/03/25 03:46:12;;;;;;;5.90;4.75;;;17.50;49.80;;;;;;5009698;28;20175;-79
2021/03/25 03:48:49;;;;;;;7.20;5.05;;;17.50;49.80;;;;;;4993175;28;20169;-79
2021/03/25 03:51:31;;;;;;;5.40;4.28;;;17.50;49.80;;;;;;5027433;28;20246;-79
2021/03/25 03:54:02;;;;;;;5.13;4.40;;;17.50;49.80;;;;;;5009859;28;20174;-79
2021/03/25 03:56:52;;;;;;;6.75;4.72;;;17.50;49.80;;;;;;5010503;28;20166;-79
2021/03/25 03:59:44;;;;;;;6.75;5.15;;;17.50;49.80;;;;;;5009644;28;20155;-79
2021/03/25 04:02:27;;;;;;;5.35;4.60;;;17.50;49.90;;;;;;4966553;29;20256;-79
2021/03/25 04:05:17;;;;;;;6.65;4.63;;;17.50;49.80;;;;;;4951054;29;20185;-79
2021/03/25 04:07:46;;;;;;;7.32;4.93;;;17.50;49.80;;;;;;4934544;29;20185;-79
2021/03/25 04:10:16;;;;;;;5.60;4.47;;;17.50;49.80;;;;;;4966384;28;20168;-79
2021/03/25 04:12:45;;;;;;;6.10;4.50;;;17.50;49.90;;;;;;4966917;29;20193;-79
2021/03/25 04:15:32;;;;;;;6.30;4.90;;;17.50;49.90;;;;;;4948988;29;20162;-79
2021/03/25 04:18:35;;;;;;;5.53;4.57;;;17.40;49.90;;;;;;4947301;29;20179;-79
2021/03/25 04:21:24;;;;;;;6.78;4.75;;;17.40;49.90;;;;;;4966279;29;20208;-79
2021/03/25 04:23:54;;;;;;;6.25;4.53;;;17.40;49.80;;;;;;4965664;28;20237;-79
2021/03/25 04:26:26;;;;;;;6.43;4.53;;;17.40;49.90;;;;;;4934646;29;20273;-79
2021/03/25 04:29:01;;;;;;;6.20;4.28;;;17.40;49.90;;;;;;4965776;29;20241;-79
2021/03/25 04:31:29;;;;;;;6.20;4.50;;;17.40;49.90;;;;;;4950252;29;20181;-79
2021/03/25 04:34:04;;;;;;;6.43;4.60;;;17.40;49.90;;;;;;4949731;29;20189;-79
2021/03/25 04:36:33;;;;;;;6.22;4.65;;;17.40;50.00;;;;;;4934338;29;20172;-79
2021/03/25 04:39:08;;;;;;;5.85;4.55;;;17.40;49.90;;;;;;4957277;28;20245;-79
2021/03/25 04:41:44;;;;;;;5.38;4.63;;;17.40;49.80;;;;;;5009443;28;20187;-79
2021/03/25 04:44:39;;;;;;;6.32;4.45;;;17.40;49.90;;;;;;4992673;28;20163;-79
2021/03/25 04:47:18;;;;;;;5.40;4.68;;;17.40;49.90;;;;;;5026890;28;20160;-79
2021/03/25 04:50:03;;;;;;;5.93;4.78;;;17.40;49.80;;;;;;5008975;28;20250;-79
2021/03/25 04:52:31;;;;;;;5.40;4.47;;;17.40;49.90;;;;;;5008509;28;20194;-79
2021/03/25 04:55:19;;;;;;;4.93;4.43;;;17.40;49.70;;;;;;4992442;28;20220;-79
2021/03/25 04:58:20;;;;;;;5.07;4.30;;;17.40;49.70;;;;;;5006816;28;20164;-79
2021/03/25 05:00:47;;;;;;;5.78;4.50;;;17.40;49.60;;;;;;4933755;29;20271;-79
2021/03/25 05:03:37;;;;;;;5.70;4.60;;;17.50;49.50;;;;;;4950236;29;20162;-79
2021/03/25 05:06:42;;;;;;;6.70;4.57;;;17.50;49.40;;;;;;4949390;29;20204;-79
2021/03/25 05:09:28;;;;;;;5.15;3.63;;;17.60;49.00;;;;;;4950199;29;20174;-79
2021/03/25 05:12:16;;;;;;;5.18;4.30;;;17.70;48.30;;;;;;4965626;29;20203;-79
2021/03/25 05:15:08;;;;;;;5.10;4.30;;;17.80;48.40;;;;;;4965394;29;20176;-80
2021/03/25 05:17:35;;;;;;;5.93;4.22;;;17.70;48.50;;;;;;4965348;29;20182;-79
2021/03/25 05:20:16;;;;;;;5.45;4.53;;;17.70;48.60;;;;;;4949051;29;20177;-79
2021/03/25 05:22:45;;;;;;;5.45;4.32;;;17.70;48.70;;;;;;4951954;29;20305;-79
2021/03/25 05:25:11;;;;;;;4.80;4.07;;;17.60;48.70;;;;;;4949722;28;20181;-80
2021/03/25 05:27:46;;;;;;;6.75;4.45;;;17.60;48.70;;;;;;4952007;29;20173;-79
2021/03/25 05:30:34;;;;;;;5.25;4.13;;;17.60;48.50;;;;;;4969484;29;20247;-79
2021/03/25 05:33:20;;;;;;;5.63;4.18;;;17.70;48.30;;;;;;4952431;29;20787;-79
2021/03/25 05:35:53;;;;;;;4.78;4.00;;;17.80;47.80;;;;;;4952552;29;20161;-80
2021/03/25 05:38:20;;;;;;;4.88;4.07;;;17.80;48.00;;;;;;4996875;28;20163;-79
2021/03/25 05:40:46;;;;;;;5.10;4.38;;;17.70;48.30;;;;;;5012155;28;20190;-79
2021/03/25 05:43:44;;;;;;;5.07;4.00;;;17.70;48.30;;;;;;5029681;28;20215;-80
2021/03/25 05:46:14;;;;;;;5.75;4.32;;;17.70;48.00;;;;;;4995707;28;20210;-80
2021/03/25 05:49:10;;;;;;;5.97;4.20;;;17.70;48.30;;;;;;5011319;28;20171;-79
2021/03/25 05:51:52;;;;;;;4.43;3.90;;;17.70;48.30;;;;;;5011645;28;20175;-79
2021/03/25 05:55:01;;;;;;;4.20;3.67;;;17.70;48.10;;;;;;5011821;28;20183;-79
2021/03/25 05:57:52;;;;;;;5.30;3.88;;;17.70;48.00;;;;;;5012417;28;20165;-79
2021/03/25 06:00:54;;;;;;;5.30;4.10;;;17.70;48.30;;;;;;5029240;28;20208;-79
2021/03/25 06:03:21;;;;;;;4.45;3.92;;;17.60;48.00;;;;;;5029189;28;20163;-79
2021/03/25 06:05:51;;;;;;;4.25;3.80;;;17.70;48.10;;;;;;5011840;28;20151;-79
2021/03/25 06:08:47;;;;;;;4.30;3.90;;;17.60;48.10;;;;;;4994944;28;20254;-79
2021/03/25 06:11:27;;;;;;;4.53;3.70;;;17.60;48.20;;;;;;5011172;28;20175;-79
2021/03/25 06:14:04;;;;;;;5.00;3.83;;;17.60;48.20;;;;;;5028711;28;20227;-79
2021/03/25 06:16:44;;;;;;;4.78;3.80;;;17.60;48.30;;;;;;5028978;28;20230;-79
2021/03/25 06:19:17;;;;;;;4.18;3.50;;;17.60;48.30;;;;;;4994885;28;20175;-80
2021/03/25 06:22:03;;;;;;;4.38;3.65;;;17.50;48.10;;;;;;5028029;28;20262;-80
2021/03/25 06:24:49;;;;;;;4.22;3.83;;;17.60;47.90;;;;;;4993777;28;20186;-79
2021/03/25 06:27:31;;;;;;;4.93;3.55;;;17.60;48.00;;;;;;5011072;28;20619;-79
2021/03/25 06:30:15;;;;;;;4.22;3.60;;;17.70;47.40;;;;;;5028441;28;20187;-80
2021/03/25 06:32:50;;;;;;;4.30;3.78;;;17.70;47.50;;;;;;5010652;28;20167;-80
2021/03/25 06:35:57;;;;;;;4.47;3.35;;;17.70;47.70;;;;;;5010885;28;20167;-79
2021/03/25 06:38:33;;;;;;;4.63;3.45;;;17.60;47.70;;;;;;4951429;29;20174;-79
2021/03/25 06:41:23;;;;;;;3.55;3.15;;;17.60;47.90;;;;;;4952115;29;20283;-79
2021/03/25 06:44:18;;;;;;;3.85;3.33;;;17.70;47.50;;;;;;4952313;29;20176;-79
2021/03/25 06:47:10;;;;;;;4.38;3.50;;;17.70;47.40;;;;;;4951976;29;20181;-79
2021/03/25 06:49:51;;;;;;;5.95;3.45;;;17.70;47.40;;;;;;4951543;29;20185;-80
2021/03/25 06:52:24;;;;;;;5.13;3.30;;;17.80;47.20;;;;;;4936479;29;20177;-80
2021/03/25 06:55:06;;;;;;;4.43;3.50;;;17.70;47.20;;;;;;4952281;29;20181;-80
2021/03/25 06:57:47;;;;;;;4.78;3.63;;;17.80;47.20;;;;;;4968040;29;20179;-80
2021/03/25 07:00:19;;;;;;;4.97;3.70;;;17.80;47.30;;;;;;4950841;29;20572;-80
2021/03/25 07:02:54;;;;;;;6.00;3.40;;;17.70;47.20;;;;;;4935461;29;20193;-80
2021/03/25 07:05:26;;;;;;;5.00;3.50;;;17.70;47.00;;;;;;4951599;29;20193;-79
2021/03/25 07:08:12;;;;;;;5.13;3.42;;;17.80;47.00;;;;;;4951034;29;20664;-80
2021/03/25 07:10:41;;;;;;;3.83;3.17;;;17.80;47.00;;;;;;4964765;29;20178;-80
2021/03/25 07:13:40;;;;;;;3.63;3.20;;;17.80;47.20;;;;;;4967423;29;20194;-80
2021/03/25 07:16:09;;;;;;;4.28;3.53;;;17.70;47.10;;;;;;5013378;28;20223;-79
2021/03/25 07:18:59;;;;;;;5.20;3.45;;;17.80;47.10;;;;;;4994254;28;20171;-80
2021/03/25 07:21:35;;;;;;;3.90;3.47;;;17.90;47.20;;;;;;5009513;28;20204;-80
2021/03/25 07:24:08;;;;;;;3.85;3.20;;;17.80;47.20;;;;;;5009714;28;20276;-79
2021/03/25 07:26:43;;;;;;;4.60;3.30;;;17.70;47.30;;;;;;4994220;28;20167;-79
2021/03/25 07:29:17;;;;;;;4.35;3.45;;;17.80;47.30;;;;;;4993546;28;20174;-79
2021/03/25 07:31:58;;;;;;;3.33;3.00;;;17.80;47.20;;;;;;5009880;28;20242;-79
2021/03/25 07:34:43;;;;;;;3.95;3.22;;;17.70;47.20;;;;;;5010092;28;20175;-79
2021/03/25 07:37:39;;;;;;;3.20;2.90;;;17.80;46.90;;;;;;5010818;28;20248;-81
2021/03/25 07:40:34;;;;;;;5.20;3.17;;;17.90;47.40;;;;;;5026896;28;20198;-79
2021/03/25 07:43:12;;;;;;;3.95;3.00;;;17.90;46.70;;;;;;5027282;28;20246;-79
2021/03/25 07:45:47;;;;;;;3.45;3.13;;;17.90;46.60;;;;;;5009455;28;20167;-80
2021/03/25 07:48:18;;;;;;;3.58;3.05;;;17.90;46.50;;;;;;5007095;28;20178;-80
2021/03/25 07:50:45;;;;;;;4.80;3.00;;;18.00;46.40;;;;;;4974807;28;20180;-79
2021/03/25 07:53:25;;;;;;;3.97;2.80;;;17.90;46.30;;;;;;4993045;28;20271;-79
2021/03/25 07:56:19;;;;;;;3.70;3.22;;;18.00;46.00;;;;;;5008035;28;20155;-79
2021/03/25 07:58:47;;;;;;;4.85;3.70;;;18.10;45.90;;;;;;5002455;28;20187;-79
2021/03/25 08:01:21;;;;;;;5.25;3.40;;;18.10;46.00;;;;;;4983611;28;20218;-83
2021/03/25 08:03:54;;;;;;;3.30;2.75;;;18.00;46.10;;;;;;4999746;28;20159;-80
2021/03/25 08:06:38;;;;;;;4.97;3.28;;;17.90;46.20;;;;;;4996329;28;20155;-79
2021/03/25 08:09:07;;;;;;;3.47;3.10;;;17.90;46.20;;;;;;4996203;28;20271;-79
2021/03/25 08:11:34;;;;;;;4.10;3.10;;;17.90;46.20;;;;;;4996163;28;20175;-79
2021/03/25 08:14:14;;;;;;;3.95;3.03;;;17.90;46.10;;;;;;4996609;28;20156;-79
2021/03/25 08:16:46;;;;;;;3.42;3.08;;;18.00;46.00;;;;;;4979895;28;20168;-78
2021/03/25 08:19:40;;;;;;;3.33;2.83;;;18.00;46.10;;;;;;4980054;28;20310;-78
2021/03/25 08:22:29;;;;;;;3.95;3.17;;;18.00;46.00;;;;;;4995746;28;20237;-81
2021/03/25 08:25:05;;;;;;;3.65;3.10;;;17.90;45.90;;;;;;4994864;28;20168;-82
2021/03/25 08:27:53;;;;;;;4.15;3.17;;;17.90;45.90;;;;;;4981657;28;20168;-82
2021/03/25 08:30:30;;;;;;;3.63;3.10;;;18.00;45.90;;;;;;5020757;28;20178;-81
2021/03/25 08:33:15;;;;;;;3.78;2.80;;;18.00;46.00;;;;;;5015071;28;20158;-81
2021/03/25 08:35:58;;;;;;;3.42;2.88;;;18.10;45.60;;;;;;4998098;28;20163;-82
2021/03/25 08:38:52;;;;;;;4.20;3.05;;;18.00;45.70;;;;;;4982117;28;20158;-79
2021/03/25 08:41:25;;;;;;;5.45;3.00;;;18.00;45.70;;;;;;4999938;28;20299;-76
2021/03/25 08:44:18;;;;;;;3.90;2.92;;;18.00;45.70;;;;;;4998931;28;20147;-81
2021/03/25 08:47:05;;;;;;;3.65;3.03;;;18.10;45.60;;;;;;4934160;29;20182;-82
2021/03/25 08:49:53;;;;;;;4.60;3.03;;;18.00;45.40;;;;;;4918247;29;20210;-83
2021/03/25 08:52:38;;;;;;;3.60;2.78;;;18.10;45.40;;;;;;4921403;29;20197;-83
2021/03/25 08:55:45;;;;;;;4.57;2.78;;;18.10;45.50;;;;;;4939152;29;20166;-82
2021/03/25 08:58:32;;;;;;;3.85;2.78;;;18.10;45.70;;;;;;4921742;29;20178;-81
2021/03/25 09:01:20;;;;;;;4.03;2.92;;;18.10;45.60;;;;;;4940227;29;20209;-83
2021/03/25 09:03:49;;;;;;;3.15;2.63;;;18.00;45.60;;;;;;4930790;29;20193;-83
2021/03/25 09:06:36;;;;;;;3.50;2.90;;;18.00;45.30;;;;;;4915418;29;20233;-81
2021/03/25 09:09:06;;;;;;;4.28;2.88;;;18.00;45.60;;;;;;4932354;29;20166;-82
2021/03/25 09:11:33;;;;;;;3.38;2.88;;;18.00;45.40;;;;;;4927427;29;20190;-83
2021/03/25 09:14:00;;;;;;;4.45;2.90;;;18.00;45.30;;;;;;4929844;29;20189;-81
2021/03/25 09:16:27;;;;;;;4.88;3.05;;;18.10;45.10;;;;;;4929399;29;20186;-82
2021/03/25 09:18:55;;;;;;;3.13;2.83;;;18.00;45.40;;;;;;4933049;29;20158;-80
2021/03/25 09:21:32;;;;;;;3.42;2.80;;;18.10;45.10;;;;;;4932907;29;20775;-80
2021/03/25 09:24:04;;;;;;;4.80;3.10;;;18.10;45.10;;;;;;4980689;28;20225;-80
2021/03/25 09:26:29;;;;;;;3.47;2.70;;;18.10;45.20;;;;;;5028866;28;20211;-82
2021/03/25 09:29:10;;;;;;;3.92;3.00;;;18.10;45.10;;;;;;5028640;28;20155;-80
2021/03/25 09:31:39;;;;;;;4.15;2.70;;;18.20;45.50;;;;;;4996144;28;20222;-81
2021/03/25 09:34:11;;;;;;;4.30;2.97;;;18.10;45.00;;;;;;5028782;28;20219;-82
2021/03/25 09:36:37;;;;;;;2.95;2.55;;;18.10;44.80;;;;;;5028279;28;20160;-83
2021/03/25 09:39:03;;;;;;;3.90;2.60;;;18.20;44.90;;;;;;5028490;28;20298;-81
2021/03/25 09:41:29;;;;;;;3.67;2.63;;;18.20;44.60;;;;;;5010770;28;20242;-80
2021/03/25 09:44:09;;;;;;;3.83;3.00;;;18.30;44.60;;;;;;5028325;28;20156;-81
2021/03/25 09:46:41;;;;;;;5.07;2.80;;;18.20;44.90;;;;;;5008369;28;20178;-83
2021/03/25 09:49:35;;;;;;;4.00;2.92;;;18.20;44.80;;;;;;5026937;28;20152;-83
2021/03/25 09:52:38;;;;;;;4.40;2.75;;;18.20;44.70;;;;;;5009105;28;20179;-81
2021/03/25 09:55:05;;;;;;;3.40;2.80;;;18.20;44.60;;;;;;5009192;28;20159;-80
2021/03/25 09:57:31;;;;;;;3.22;2.70;;;18.30;44.60;;;;;;5009054;28;20183;-81
2021/03/25 10:00:27;;;;;;;3.25;2.80;;;18.30;44.30;;;;;;5026592;28;20231;-82
2021/03/25 10:02:55;;;;;;;2.97;2.67;;;18.40;44.00;;;;;;5027800;28;20183;-81
2021/03/25 10:05:35;;;;;;;3.75;2.55;;;18.30;44.20;;;;;;4992683;28;20156;-82
2021/03/25 10:08:18;;;;;;;4.43;2.88;;;18.40;43.90;;;;;;5010135;28;20163;-81
2021/03/25 10:11:00;;;;;;;2.88;2.58;;;18.40;44.00;;;;;;5007108;28;20168;-83
2021/03/25 10:13:29;;;;;;;3.15;2.55;;;18.40;43.90;;;;;;5002028;28;20376;-83
2021/03/25 10:16:00;;;;;;;2.80;2.50;;;18.30;44.10;;;;;;5022529;28;20603;-81
2021/03/25 10:18:26;;;;;;;5.03;3.03;;;18.30;43.90;;;;;;5025339;28;20156;-81
2021/03/25 10:20:52;;;;;;;5.82;2.65;;;18.40;43.60;;;;;;5006631;28;20202;-85
2021/03/25 10:23:27;;;;;;;3.15;2.55;;;18.40;43.60;;;;;;5004758;28;20235;-83
2021/03/25 10:26:37;;;;;;;3.38;2.42;;;18.40;43.30;;;;;;5004107;28;20174;-84
2021/03/25 10:29:11;;;;;;;4.60;2.85;;;18.50;43.50;;;;;;4963560;29;20188;-81
2021/03/25 10:31:37;;;;;;;3.28;2.85;;;18.50;43.50;;;;;;4959737;29;20181;-81
2021/03/25 10:34:31;;;;;;;4.50;2.78;;;18.50;43.40;;;;;;4941374;29;20256;-85
2021/03/25 10:37:26;;;;;;;3.85;2.47;;;18.40;43.30;;;;;;4940775;29;20178;-86
2021/03/25 10:40:00;;;;;;;3.33;2.33;;;18.50;43.20;;;;;;4940483;29;20181;-83
2021/03/25 10:42:33;;;;;;;4.35;2.42;;;18.40;43.20;;;;;;4947579;29;20273;-81
2021/03/25 10:45:22;;;;;;;3.75;2.70;;;18.40;43.60;;;;;;4940655;29;20621;-85
2021/03/25 10:48:38;;;;;;;2.90;2.38;;;18.40;43.40;;;;;;4940360;29;20314;-84
2021/03/25 10:51:18;;;;;;;3.25;2.40;;;18.50;43.00;;;;;;4953706;29;20169;-83
2021/03/25 10:53:45;;;;;;;2.88;2.40;;;18.50;42.80;;;;;;4924125;29;20272;-84
2021/03/25 10:56:25;;;;;;;2.67;2.38;;;18.60;43.00;;;;;;4956355;29;20261;-84
2021/03/25 10:59:06;;;;;;;3.42;2.47;;;18.50;42.80;;;;;;4956078;29;20196;-83
2021/03/25 11:01:37;;;;;;;2.60;2.40;;;18.60;42.80;;;;;;4955666;29;20200;-83
2021/03/25 11:04:26;;;;;;;2.60;2.40;;;18.50;42.80;;;;;;4940156;29;20727;-86
2021/03/25 11:06:55;;;;;;;4.15;2.60;;;18.50;42.50;;;;;;4998880;28;20179;-84
2021/03/25 11:09:25;;;;;;;2.70;2.25;;;18.50;42.70;;;;;;5001232;28;20159;-82
2021/03/25 11:12:11;;;;;;;3.45;2.40;;;18.50;42.50;;;;;;5018041;28;20158;-84
2021/03/25 11:14:43;;;;;;;3.33;2.78;;;18.50;42.50;;;;;;5001734;28;20155;-82
2021/03/25 11:17:16;;;;;;;3.72;2.40;;;18.60;42.40;;;;;;5002590;28;20162;-84
2021/03/25 11:19:43;;;;;;;3.45;2.58;;;18.50;42.60;;;;;;5008075;28;20156;-81
2021/03/25 11:22:12;;;;;;;3.78;2.53;;;18.50;42.40;;;;;;5008500;28;20248;-82
2021/03/25 11:24:38;;;;;;;2.95;2.65;;;18.60;42.20;;;;;;4973415;28;20178;-83
2021/03/25 11:27:21;;;;;;;2.50;2.10;;;18.70;42.00;;;;;;5022961;28;20156;-82
2021/03/25 11:30:04;;;;;;;2.72;2.38;;;18.70;41.90;;;;;;5007375;28;20151;-81
2021/03/25 11:32:39;;;;;;;3.65;2.65;;;18.60;42.00;;;;;;5024990;28;20178;-84
2021/03/25 11:35:30;;;;;;;3.20;2.30;;;18.60;42.00;;;;;;5005250;28;20226;-82
2021/03/25 11:38:24;;;;;;;2.63;2.35;;;18.60;42.00;;;;;;5011567;28;20254;-81
2021/03/25 11:41:07;;;;;;;5.65;2.63;;;18.60;41.90;;;;;;5008393;28;20203;-82
2021/03/25 11:43:47;;;;;;;5.00;2.38;;;18.70;41.80;;;;;;5000820;28;20223;-84
2021/03/25 11:46:33;;;;;;;2.40;2.20;;;18.60;41.90;;;;;;5018182;28;20164;-84
2021/03/25 11:49:17;;;;;;;2.72;2.30;;;18.60;41.90;;;;;;5021175;28;20162;-84
2021/03/25 11:52:00;;;;;;;3.28;2.40;;;18.60;41.90;;;;;;5025494;28;20187;-83
2021/03/25 11:54:33;;;;;;;2.85;2.20;;;18.60;41.70;;;;;;4992617;28;20160;-84
2021/03/25 11:57:16;;;;;;;2.65;2.20;;;18.70;41.70;;;;;;5003289;28;20167;-83
2021/03/25 11:59:43;;;;;;;3.35;2.55;;;18.60;41.50;;;;;;5003337;28;20159;-85
2021/03/25 12:02:18;;;;;;;2.78;2.10;;;18.60;41.60;;;;;;4998605;28;20315;-84
2021/03/25 12:04:45;;;;;;;2.60;2.28;;;18.60;41.80;;;;;;5013948;28;20182;-83
2021/03/25 12:07:10;;;;;;;3.03;2.20;;;18.60;41.70;;;;;;5017340;28;20156;-81
2021/03/25 12:09:37;;;;;;;3.20;2.30;;;18.60;41.70;;;;;;5000961;28;20171;-83
2021/03/25 12:12:07;;;;;;;3.25;2.45;;;18.60;41.70;;;;;;5004038;28;20637;-82
2021/03/25 12:14:34;;;;;;;2.35;2.15;;;18.60;41.60;;;;;;5021103;28;20167;-83
2021/03/25 12:17:01;;;;;;;3.55;2.42;;;18.60;41.40;;;;;;4987041;28;20162;-81
2021/03/25 12:19:28;;;;;;;2.45;2.25;;;18.70;41.50;;;;;;5026151;28;20178;-83
2021/03/25 12:21:53;;;;;;;3.00;2.22;;;18.60;41.30;;;;;;5038786;28;20182;-81
2021/03/25 12:24:19;;;;;;;2.45;2.25;;;18.60;41.30;;;;;;5018670;28;20221;-83
2021/03/25 12:26:45;;;;;;;2.80;2.38;;;18.50;41.50;;;;;;5017559;28;20673;-82
2021/03/25 12:29:14;;;;;;;2.92;2.35;;;18.50;41.70;;;;;;5002086;28;20536;-83
2021/03/25 12:31:41;;;;;;;2.58;2.38;;;18.40;41.70;;;;;;5015786;28;20163;-81
2021/03/25 12:34:07;;;;;;;2.65;2.08;;;18.40;41.70;;;;;;5016660;28;20159;-84
2021/03/25 12:36:33;;;;;;;3.30;2.10;;;18.50;41.40;;;;;;4999197;28;20166;-81
2021/03/25 12:39:00;;;;;;;3.13;2.22;;;18.50;41.50;;;;;;4999169;28;20528;-83
2021/03/25 12:41:36;;;;;;;2.95;2.33;;;18.50;41.50;;;;;;4998835;28;20220;-84
2021/03/25 12:44:03;;;;;;;2.50;2.25;;;18.50;41.30;;;;;;5015598;28;20193;-82
2021/03/25 12:46:30;;;;;;;2.45;2.15;;;18.60;41.30;;;;;;5016102;28;20248;-82
2021/03/25 12:48:57;;;;;;;3.67;2.20;;;18.60;41.10;;;;;;5016065;28;20158;-82
2021/03/25 12:51:23;;;;;;;2.92;1.95;;;18.60;41.30;;;;;;4999166;28;20258;-82
2021/03/25 12:53:50;;;;;;;2.40;2.13;;;18.60;41.20;;;;;;5002199;28;20173;-84
2021/03/25 12:56:39;;;;;;;3.10;2.17;;;18.60;41.20;;;;;;5001120;28;20155;-83
2021/03/25 12:59:12;;;;;;;2.53;2.17;;;18.60;40.80;;;;;;5016671;28;20155;-84
2021/03/25 13:01:39;;;;;;;2.70;2.30;;;18.60;41.00;;;;;;5038719;28;20258;-82
2021/03/25 13:04:06;;;;;;;2.45;2.25;;;18.60;41.10;;;;;;5020329;28;20175;-82
2021/03/25 13:06:32;;;;;;;2.80;2.33;;;18.60;41.00;;;;;;5006534;28;20163;-83
2021/03/25 13:08:59;;;;;;;3.53;2.17;;;18.50;41.00;;;;;;5024498;28;20151;-82
2021/03/25 13:11:27;;;;;;;2.63;1.98;;;18.60;40.80;;;;;;5020175;28;20165;-82
2021/03/25 13:13:57;;;;;;;2.58;2.10;;;18.60;40.60;;;;;;5009251;28;20167;-82
2021/03/25 13:16:27;;;;;;;2.40;2.20;;;18.70;40.60;;;;;;5025450;28;20238;-84
2021/03/25 13:18:53;;;;;;;3.05;2.38;;;18.60;40.50;;;;;;5008202;28;20217;-83
2021/03/25 13:21:20;;;;;;;2.20;2.00;;;18.70;40.60;;;;;;5019476;28;20198;-82
2021/03/25 13:23:46;;;;;;;2.90;2.33;;;18.70;40.50;;;;;;5001059;28;20569;-83
2021/03/25 13:26:13;;;;;;;2.88;2.10;;;18.70;40.40;;;;;;5035151;28;20166;-80
2021/03/25 13:28:40;;;;;;;2.63;2.00;;;18.70;40.50;;;;;;5035126;28;20167;-82
2021/03/25 13:31:06;;;;;;;2.33;2.00;;;18.70;40.30;;;;;;5001245;28;20185;-83
2021/03/25 13:33:32;;;;;;;2.45;2.05;;;18.80;40.10;;;;;;5019445;28;20595;-82
2021/03/25 13:35:58;;;;;;;2.40;1.90;;;18.60;40.40;;;;;;5018157;28;20249;-81
2021/03/25 13:38:23;;;;;;;2.58;1.98;;;18.70;40.30;;;;;;5020228;28;20250;-82
2021/03/25 13:40:51;;;;;;;2.30;2.05;;;18.60;40.40;;;;;;4985934;28;20198;-83
2021/03/25 13:43:20;;;;;;;4.40;2.40;;;18.60;40.30;;;;;;5018871;28;20201;-80